sensor_id;sensor_type;location;lat;lon;timestamp;P1;durP1;ratioP1;P2;durP2;ratioP2
33954;SDS011;20233;50.804;7.126;2023-02-28T00:00:20;3.20;;;1.10;;
33954;SDS011;20233;50.804;7.126;2023-02-28T00:02:46;5.85;;;1.40;;
33954;SDS011;20233;50.804;7.126;2023-02-28T00:05:13;4.40;;;1.13;;
33954;SDS011;20233;50.804;7.126;2023-02-28T00:07:41;3.78;;;1.40;;
33954;SDS011;20233;50.804;7.126;2023-02-28T00:10:11;5.93;;;1.48;;
33954;SDS011;20233;50.804;7.126;2023-02-28T00:12:38;3.90;;;1.52;;
33954;SDS011;20233;50.804;7.126;2023-02-28T00:15:08;3.50;;;1.50;;
33954;SDS011;20233;50.804;7.126;2023-02-28T00:17:35;5.63;;;1.52;;
33954;SDS011;20233;50.804;7.126;2023-02-28T00:20:02;6.63;;;2.33;;
33954;SDS011;20233;50.804;7.126;2023-02-28T00:22:29;6.72;;;2.38;;
33954;SDS011;20233;50.804;7.126;2023-02-28T00:24:55;7.82;;;2.47;;
33954;SDS011;20233;50.804;7.126;2023-02-28T00:27:21;6.10;;;2.17;;
33954;SDS011;20233;50.804;7.126;2023-02-28T00:29:47;2.92;;;1.60;;
33954;SDS011;20233;50.804;7.126;2023-02-28T00:32:12;5.25;;;2.00;;
33954;SDS011;20233;50.804;7.126;2023-02-28T00:34:38;5.07;;;2.03;;
33954;SDS011;20233;50.804;7.126;2023-02-28T00:37:04;6.13;;;1.95;;
33954;SDS011;20233;50.804;7.126;2023-02-28T00:39:31;6.65;;;1.42;;
33954;SDS011;20233;50.804;7.126;2023-02-28T00:41:59;3.28;;;1.48;;
33954;SDS011;20233;50.804;7.126;2023-02-28T00:44:24;2.90;;;1.33;;
33954;SDS011;20233;50.804;7.126;2023-02-28T00:46:50;4.78;;;1.77;;
33954;SDS011;20233;50.804;7.126;2023-02-28T00:49:16;3.70;;;1.70;;
33954;SDS011;20233;50.804;7.126;2023-02-28T00:51:42;4.53;;;1.67;;
33954;SDS011;20233;50.804;7.126;2023-02-28T00:54:08;4.80;;;2.20;;
33954;SDS011;20233;50.804;7.126;2023-02-28T00:56:33;3.17;;;1.67;;
33954;SDS011;20233;50.804;7.126;2023-02-28T00:58:59;4.45;;;2.22;;
33954;SDS011;20233;50.804;7.126;2023-02-28T01:01:24;4.50;;;1.42;;
33954;SDS011;20233;50.804;7.126;2023-02-28T01:03:50;6.60;;;1.88;;
33954;SDS011;20233;50.804;7.126;2023-02-28T01:06:15;3.03;;;1.42;;
33954;SDS011;20233;50.804;7.126;2023-02-28T01:08:41;5.82;;;2.20;;
33954;SDS011;20233;50.804;7.126;2023-02-28T01:11:07;4.53;;;1.52;;
33954;SDS011;20233;50.804;7.126;2023-02-28T01:13:37;4.38;;;1.95;;
33954;SDS011;20233;50.804;7.126;2023-02-28T01:16:03;4.53;;;1.25;;
33954;SDS011;20233;50.804;7.126;2023-02-28T01:18:28;4.60;;;1.10;;
33954;SDS011;20233;50.804;7.126;2023-02-28T01:20:54;3.00;;;1.08;;
33954;SDS011;20233;50.804;7.126;2023-02-28T01:23:20;4.03;;;2.28;;
33954;SDS011;20233;50.804;7.126;2023-02-28T01:25:48;3.83;;;2.03;;
33954;SDS011;20233;50.804;7.126;2023-02-28T01:28:14;2.72;;;1.08;;
33954;SDS011;20233;50.804;7.126;2023-02-28T01:30:40;5.18;;;1.20;;
33954;SDS011;20233;50.804;7.126;2023-02-28T01:33:06;3.75;;;1.10;;
33954;SDS011;20233;50.804;7.126;2023-02-28T01:35:32;5.78;;;1.48;;
33954;SDS011;20233;50.804;7.126;2023-02-28T01:37:59;4.85;;;1.27;;
33954;SDS011;20233;50.804;7.126;2023-02-28T01:40:24;3.83;;;1.00;;
33954;SDS011;20233;50.804;7.126;2023-02-28T01:42:50;3.10;;;1.77;;
33954;SDS011;20233;50.804;7.126;2023-02-28T01:45:22;5.63;;;1.35;;
33954;SDS011;20233;50.804;7.126;2023-02-28T01:48:00;3.72;;;1.00;;
33954;SDS011;20233;50.804;7.126;2023-02-28T01:50:31;5.38;;;1.02;;
33954;SDS011;20233;50.804;7.126;2023-02-28T01:53:01;3.72;;;1.30;;
33954;SDS011;20233;50.804;7.126;2023-02-28T01:55:31;2.77;;;1.10;;
33954;SDS011;20233;50.804;7.126;2023-02-28T01:57:59;5.40;;;1.25;;
33954;SDS011;20233;50.804;7.126;2023-02-28T02:00:28;3.55;;;1.30;;
33954;SDS011;20233;50.804;7.126;2023-02-28T02:02:55;3.97;;;1.05;;
33954;SDS011;20233;50.804;7.126;2023-02-28T02:05:30;3.00;;;1.40;;
33954;SDS011;20233;50.804;7.126;2023-02-28T02:07:57;3.03;;;1.17;;
33954;SDS011;20233;50.804;7.126;2023-02-28T02:10:29;2.08;;;0.98;;
33954;SDS011;20233;50.804;7.126;2023-02-28T02:15:41;4.43;;;1.27;;
33954;SDS011;20233;50.804;7.126;2023-02-28T02:23:46;3.17;;;1.70;;
33954;SDS011;20233;50.804;7.126;2023-02-28T02:29:11;5.03;;;1.67;;
33954;SDS011;20233;50.804;7.126;2023-02-28T02:40:23;4.38;;;1.35;;
33954;SDS011;20233;50.804;7.126;2023-02-28T02:42:55;5.03;;;1.60;;
33954;SDS011;20233;50.804;7.126;2023-02-28T02:47:53;3.47;;;1.30;;
33954;SDS011;20233;50.804;7.126;2023-02-28T02:50:27;3.13;;;1.23;;
33954;SDS011;20233;50.804;7.126;2023-02-28T02:53:07;3.53;;;1.73;;
33954;SDS011;20233;50.804;7.126;2023-02-28T02:55:34;3.97;;;1.40;;
33954;SDS011;20233;50.804;7.126;2023-02-28T02:58:07;2.95;;;1.38;;
33954;SDS011;20233;50.804;7.126;2023-02-28T03:00:37;4.60;;;1.58;;
33954;SDS011;20233;50.804;7.126;2023-02-28T03:03:12;2.55;;;1.40;;
33954;SDS011;20233;50.804;7.126;2023-02-28T03:05:44;3.95;;;2.40;;
33954;SDS011;20233;50.804;7.126;2023-02-28T03:08:15;3.20;;;1.60;;
33954;SDS011;20233;50.804;7.126;2023-02-28T03:10:45;4.82;;;1.63;;
33954;SDS011;20233;50.804;7.126;2023-02-28T03:18:54;3.92;;;1.63;;
33954;SDS011;20233;50.804;7.126;2023-02-28T03:21:52;3.83;;;1.67;;
33954;SDS011;20233;50.804;7.126;2023-02-28T03:24:40;4.25;;;1.85;;
33954;SDS011;20233;50.804;7.126;2023-02-28T03:27:24;3.75;;;1.42;;
33954;SDS011;20233;50.804;7.126;2023-02-28T03:30:01;3.10;;;1.50;;
33954;SDS011;20233;50.804;7.126;2023-02-28T03:32:36;3.47;;;1.77;;
33954;SDS011;20233;50.804;7.126;2023-02-28T03:35:28;7.07;;;2.05;;
33954;SDS011;20233;50.804;7.126;2023-02-28T03:38:22;6.28;;;2.03;;
33954;SDS011;20233;50.804;7.126;2023-02-28T03:41:16;5.10;;;2.17;;
33954;SDS011;20233;50.804;7.126;2023-02-28T03:43:43;6.15;;;2.38;;
33954;SDS011;20233;50.804;7.126;2023-02-28T03:46:15;5.43;;;2.15;;
33954;SDS011;20233;50.804;7.126;2023-02-28T03:48:51;4.15;;;1.77;;
33954;SDS011;20233;50.804;7.126;2023-02-28T03:51:39;4.55;;;1.60;;
33954;SDS011;20233;50.804;7.126;2023-02-28T03:54:07;5.03;;;1.77;;
33954;SDS011;20233;50.804;7.126;2023-02-28T03:56:38;5.10;;;1.90;;
33954;SDS011;20233;50.804;7.126;2023-02-28T04:02:09;4.72;;;2.22;;
33954;SDS011;20233;50.804;7.126;2023-02-28T04:04:34;5.40;;;2.30;;
33954;SDS011;20233;50.804;7.126;2023-02-28T04:07:01;5.30;;;2.40;;
33954;SDS011;20233;50.804;7.126;2023-02-28T04:09:33;3.53;;;1.90;;
33954;SDS011;20233;50.804;7.126;2023-02-28T04:11:59;5.03;;;2.10;;
33954;SDS011;20233;50.804;7.126;2023-02-28T04:14:25;3.15;;;1.70;;
33954;SDS011;20233;50.804;7.126;2023-02-28T04:16:51;4.05;;;1.85;;
33954;SDS011;20233;50.804;7.126;2023-02-28T04:19:17;5.38;;;2.10;;
33954;SDS011;20233;50.804;7.126;2023-02-28T04:21:47;5.90;;;2.10;;
33954;SDS011;20233;50.804;7.126;2023-02-28T04:24:21;5.63;;;2.60;;
33954;SDS011;20233;50.804;7.126;2023-02-28T04:26:52;4.53;;;2.45;;
33954;SDS011;20233;50.804;7.126;2023-02-28T04:29:28;4.03;;;2.00;;
33954;SDS011;20233;50.804;7.126;2023-02-28T04:31:57;4.30;;;2.00;;
33954;SDS011;20233;50.804;7.126;2023-02-28T04:34:24;4.38;;;1.67;;
33954;SDS011;20233;50.804;7.126;2023-02-28T04:36:51;7.38;;;1.92;;
33954;SDS011;20233;50.804;7.126;2023-02-28T04:39:19;5.10;;;1.75;;
33954;SDS011;20233;50.804;7.126;2023-02-28T04:41:46;6.00;;;1.90;;
33954;SDS011;20233;50.804;7.126;2023-02-28T04:44:12;4.80;;;1.83;;
33954;SDS011;20233;50.804;7.126;2023-02-28T04:46:38;6.07;;;2.20;;
33954;SDS011;20233;50.804;7.126;2023-02-28T04:49:04;3.95;;;2.13;;
33954;SDS011;20233;50.804;7.126;2023-02-28T04:51:29;4.00;;;1.77;;
33954;SDS011;20233;50.804;7.126;2023-02-28T04:53:55;4.32;;;1.83;;
33954;SDS011;20233;50.804;7.126;2023-02-28T04:56:20;4.25;;;2.08;;
33954;SDS011;20233;50.804;7.126;2023-02-28T04:58:46;3.72;;;2.00;;
33954;SDS011;20233;50.804;7.126;2023-02-28T05:03:46;4.82;;;1.90;;
33954;SDS011;20233;50.804;7.126;2023-02-28T05:06:12;3.50;;;1.40;;
33954;SDS011;20233;50.804;7.126;2023-02-28T05:08:38;5.03;;;1.85;;
33954;SDS011;20233;50.804;7.126;2023-02-28T05:11:06;2.75;;;1.58;;
33954;SDS011;20233;50.804;7.126;2023-02-28T05:13:41;3.38;;;1.77;;
33954;SDS011;20233;50.804;7.126;2023-02-28T05:16:07;3.78;;;1.52;;
33954;SDS011;20233;50.804;7.126;2023-02-28T05:18:32;4.07;;;1.40;;
33954;SDS011;20233;50.804;7.126;2023-02-28T05:20:58;3.53;;;1.52;;
33954;SDS011;20233;50.804;7.126;2023-02-28T05:23:27;7.15;;;1.48;;
33954;SDS011;20233;50.804;7.126;2023-02-28T05:25:52;3.03;;;1.30;;
33954;SDS011;20233;50.804;7.126;2023-02-28T05:28:19;5.25;;;1.65;;
33954;SDS011;20233;50.804;7.126;2023-02-28T05:30:44;2.75;;;1.38;;
33954;SDS011;20233;50.804;7.126;2023-02-28T05:33:10;3.90;;;1.77;;
33954;SDS011;20233;50.804;7.126;2023-02-28T05:35:40;4.72;;;1.50;;
33954;SDS011;20233;50.804;7.126;2023-02-28T05:38:06;4.03;;;1.50;;
33954;SDS011;20233;50.804;7.126;2023-02-28T05:40:31;3.67;;;1.35;;
33954;SDS011;20233;50.804;7.126;2023-02-28T05:42:57;5.97;;;1.80;;
33954;SDS011;20233;50.804;7.126;2023-02-28T05:45:22;4.05;;;1.50;;
33954;SDS011;20233;50.804;7.126;2023-02-28T05:47:48;3.78;;;1.60;;
33954;SDS011;20233;50.804;7.126;2023-02-28T05:50:13;3.78;;;1.70;;
33954;SDS011;20233;50.804;7.126;2023-02-28T05:52:40;3.85;;;1.85;;
33954;SDS011;20233;50.804;7.126;2023-02-28T05:55:06;5.88;;;1.58;;
33954;SDS011;20233;50.804;7.126;2023-02-28T05:57:32;4.20;;;1.27;;
33954;SDS011;20233;50.804;7.126;2023-02-28T05:59:57;4.30;;;1.58;;
33954;SDS011;20233;50.804;7.126;2023-02-28T06:02:23;2.55;;;1.35;;
33954;SDS011;20233;50.804;7.126;2023-02-28T06:04:48;4.13;;;1.80;;
33954;SDS011;20233;50.804;7.126;2023-02-28T06:07:14;3.30;;;1.95;;
33954;SDS011;20233;50.804;7.126;2023-02-28T06:09:40;3.38;;;1.83;;
33954;SDS011;20233;50.804;7.126;2023-02-28T06:12:07;4.90;;;2.75;;
33954;SDS011;20233;50.804;7.126;2023-02-28T06:14:34;2.83;;;2.13;;
33954;SDS011;20233;50.804;7.126;2023-02-28T06:17:01;4.78;;;2.47;;
33954;SDS011;20233;50.804;7.126;2023-02-28T06:19:27;5.80;;;2.60;;
33954;SDS011;20233;50.804;7.126;2023-02-28T06:21:54;7.43;;;3.25;;
33954;SDS011;20233;50.804;7.126;2023-02-28T06:24:22;5.60;;;2.75;;
33954;SDS011;20233;50.804;7.126;2023-02-28T06:26:49;5.28;;;3.03;;
33954;SDS011;20233;50.804;7.126;2023-02-28T06:29:15;4.90;;;2.58;;
33954;SDS011;20233;50.804;7.126;2023-02-28T06:31:44;5.32;;;2.95;;
33954;SDS011;20233;50.804;7.126;2023-02-28T06:34:11;5.47;;;2.58;;
33954;SDS011;20233;50.804;7.126;2023-02-28T06:36:38;7.43;;;2.80;;
33954;SDS011;20233;50.804;7.126;2023-02-28T06:39:04;7.97;;;2.97;;
33954;SDS011;20233;50.804;7.126;2023-02-28T06:41:30;7.13;;;3.08;;
33954;SDS011;20233;50.804;7.126;2023-02-28T06:43:56;5.35;;;2.92;;
33954;SDS011;20233;50.804;7.126;2023-02-28T06:46:22;6.10;;;3.15;;
33954;SDS011;20233;50.804;7.126;2023-02-28T06:48:48;6.55;;;2.70;;
33954;SDS011;20233;50.804;7.126;2023-02-28T06:51:15;6.65;;;2.55;;
33954;SDS011;20233;50.804;7.126;2023-02-28T06:53:42;5.55;;;2.70;;
33954;SDS011;20233;50.804;7.126;2023-02-28T06:56:09;8.38;;;4.07;;
33954;SDS011;20233;50.804;7.126;2023-02-28T06:58:36;8.23;;;3.97;;
33954;SDS011;20233;50.804;7.126;2023-02-28T07:01:03;7.05;;;3.50;;
33954;SDS011;20233;50.804;7.126;2023-02-28T07:03:29;8.27;;;3.47;;
33954;SDS011;20233;50.804;7.126;2023-02-28T07:05:55;9.30;;;5.28;;
33954;SDS011;20233;50.804;7.126;2023-02-28T07:08:21;7.72;;;3.83;;
33954;SDS011;20233;50.804;7.126;2023-02-28T07:10:53;7.75;;;3.47;;
33954;SDS011;20233;50.804;7.126;2023-02-28T07:13:20;6.00;;;3.38;;
33954;SDS011;20233;50.804;7.126;2023-02-28T07:16:09;6.25;;;3.25;;
33954;SDS011;20233;50.804;7.126;2023-02-28T07:18:35;6.07;;;3.10;;
33954;SDS011;20233;50.804;7.126;2023-02-28T07:21:06;4.45;;;2.88;;
33954;SDS011;20233;50.804;7.126;2023-02-28T07:23:35;7.68;;;3.13;;
33954;SDS011;20233;50.804;7.126;2023-02-28T07:26:07;4.05;;;2.78;;
33954;SDS011;20233;50.804;7.126;2023-02-28T07:31:05;4.38;;;2.58;;
33954;SDS011;20233;50.804;7.126;2023-02-28T07:33:33;6.82;;;2.63;;
33954;SDS011;20233;50.804;7.126;2023-02-28T07:36:00;6.20;;;2.63;;
33954;SDS011;20233;50.804;7.126;2023-02-28T07:38:29;5.07;;;2.90;;
33954;SDS011;20233;50.804;7.126;2023-02-28T07:40:57;5.22;;;1.98;;
33954;SDS011;20233;50.804;7.126;2023-02-28T07:43:24;4.90;;;2.60;;
33954;SDS011;20233;50.804;7.126;2023-02-28T07:45:50;3.38;;;1.83;;
33954;SDS011;20233;50.804;7.126;2023-02-28T07:48:17;6.72;;;3.13;;
33954;SDS011;20233;50.804;7.126;2023-02-28T07:50:44;4.75;;;2.88;;
33954;SDS011;20233;50.804;7.126;2023-02-28T07:53:20;9.82;;;2.72;;
33954;SDS011;20233;50.804;7.126;2023-02-28T07:55:48;3.55;;;2.40;;
33954;SDS011;20233;50.804;7.126;2023-02-28T07:58:14;4.47;;;2.55;;
33954;SDS011;20233;50.804;7.126;2023-02-28T08:00:41;6.40;;;2.67;;
33954;SDS011;20233;50.804;7.126;2023-02-28T08:03:10;2.80;;;1.70;;
33954;SDS011;20233;50.804;7.126;2023-02-28T08:05:39;3.72;;;1.73;;
33954;SDS011;20233;50.804;7.126;2023-02-28T08:08:05;3.65;;;1.52;;
33954;SDS011;20233;50.804;7.126;2023-02-28T08:10:33;3.78;;;1.48;;
33954;SDS011;20233;50.804;7.126;2023-02-28T08:13:01;3.38;;;1.92;;
33954;SDS011;20233;50.804;7.126;2023-02-28T08:15:27;4.15;;;1.48;;
33954;SDS011;20233;50.804;7.126;2023-02-28T08:17:54;4.95;;;1.70;;
33954;SDS011;20233;50.804;7.126;2023-02-28T08:20:25;3.15;;;1.40;;
33954;SDS011;20233;50.804;7.126;2023-02-28T08:22:52;4.18;;;1.58;;
33954;SDS011;20233;50.804;7.126;2023-02-28T08:25:19;3.10;;;1.25;;
33954;SDS011;20233;50.804;7.126;2023-02-28T08:27:46;3.97;;;1.30;;
33954;SDS011;20233;50.804;7.126;2023-02-28T08:30:13;3.13;;;0.98;;
33954;SDS011;20233;50.804;7.126;2023-02-28T08:32:40;3.72;;;1.40;;
33954;SDS011;20233;50.804;7.126;2023-02-28T08:35:07;2.92;;;1.13;;
33954;SDS011;20233;50.804;7.126;2023-02-28T08:37:34;2.38;;;1.10;;
33954;SDS011;20233;50.804;7.126;2023-02-28T08:40:00;4.45;;;1.20;;
33954;SDS011;20233;50.804;7.126;2023-02-28T08:42:29;3.55;;;1.40;;
33954;SDS011;20233;50.804;7.126;2023-02-28T08:44:58;4.28;;;0.90;;
33954;SDS011;20233;50.804;7.126;2023-02-28T08:47:25;2.88;;;0.70;;
33954;SDS011;20233;50.804;7.126;2023-02-28T08:49:52;2.40;;;0.75;;
33954;SDS011;20233;50.804;7.126;2023-02-28T08:52:19;2.58;;;0.85;;
33954;SDS011;20233;50.804;7.126;2023-02-28T08:54:46;2.88;;;1.30;;
33954;SDS011;20233;50.804;7.126;2023-02-28T08:57:12;2.83;;;0.98;;
33954;SDS011;20233;50.804;7.126;2023-02-28T08:59:39;2.45;;;0.68;;
33954;SDS011;20233;50.804;7.126;2023-02-28T09:02:08;2.45;;;0.70;;
33954;SDS011;20233;50.804;7.126;2023-02-28T09:04:35;2.38;;;0.70;;
33954;SDS011;20233;50.804;7.126;2023-02-28T09:07:02;2.88;;;0.60;;
33954;SDS011;20233;50.804;7.126;2023-02-28T09:09:29;5.10;;;0.90;;
33954;SDS011;20233;50.804;7.126;2023-02-28T09:11:56;4.43;;;1.10;;
33954;SDS011;20233;50.804;7.126;2023-02-28T09:14:23;3.80;;;0.80;;
33954;SDS011;20233;50.804;7.126;2023-02-28T09:16:50;2.38;;;0.60;;
33954;SDS011;20233;50.804;7.126;2023-02-28T09:19:15;4.22;;;0.40;;
33954;SDS011;20233;50.804;7.126;2023-02-28T09:21:42;1.90;;;0.93;;
33954;SDS011;20233;50.804;7.126;2023-02-28T09:24:10;2.17;;;0.70;;
33954;SDS011;20233;50.804;7.126;2023-02-28T09:26:42;2.45;;;0.30;;
33954;SDS011;20233;50.804;7.126;2023-02-28T09:29:08;2.42;;;0.35;;
33954;SDS011;20233;50.804;7.126;2023-02-28T09:31:36;1.30;;;0.60;;
33954;SDS011;20233;50.804;7.126;2023-02-28T09:34:03;2.83;;;1.25;;
33954;SDS011;20233;50.804;7.126;2023-02-28T09:36:30;1.70;;;0.77;;
33954;SDS011;20233;50.804;7.126;2023-02-28T09:38:58;1.75;;;0.55;;
33954;SDS011;20233;50.804;7.126;2023-02-28T09:41:26;1.40;;;0.55;;
33954;SDS011;20233;50.804;7.126;2023-02-28T09:43:58;1.90;;;0.50;;
33954;SDS011;20233;50.804;7.126;2023-02-28T09:46:30;1.00;;;0.40;;
33954;SDS011;20233;50.804;7.126;2023-02-28T09:48:57;2.35;;;0.93;;
33954;SDS011;20233;50.804;7.126;2023-02-28T09:54:08;1.67;;;0.55;;
33954;SDS011;20233;50.804;7.126;2023-02-28T09:56:44;2.15;;;0.60;;
33954;SDS011;20233;50.804;7.126;2023-02-28T10:05:19;2.55;;;0.65;;
33954;SDS011;20233;50.804;7.126;2023-02-28T10:13:22;3.65;;;0.60;;
33954;SDS011;20233;50.804;7.126;2023-02-28T10:15:58;1.35;;;0.77;;
33954;SDS011;20233;50.804;7.126;2023-02-28T10:18:35;1.83;;;0.50;;
33954;SDS011;20233;50.804;7.126;2023-02-28T10:21:08;2.05;;;0.57;;
33954;SDS011;20233;50.804;7.126;2023-02-28T10:23:47;1.70;;;0.30;;
33954;SDS011;20233;50.804;7.126;2023-02-28T10:26:16;2.17;;;0.60;;
33954;SDS011;20233;50.804;7.126;2023-02-28T10:28:44;2.03;;;0.50;;
33954;SDS011;20233;50.804;7.126;2023-02-28T10:31:19;2.63;;;0.70;;
33954;SDS011;20233;50.804;7.126;2023-02-28T10:33:47;2.53;;;0.50;;
33954;SDS011;20233;50.804;7.126;2023-02-28T10:36:14;2.28;;;0.90;;
33954;SDS011;20233;50.804;7.126;2023-02-28T10:38:44;2.75;;;0.82;;
33954;SDS011;20233;50.804;7.126;2023-02-28T10:41:12;1.77;;;0.50;;
33954;SDS011;20233;50.804;7.126;2023-02-28T10:43:42;3.20;;;0.80;;
33954;SDS011;20233;50.804;7.126;2023-02-28T10:46:16;2.70;;;0.75;;
33954;SDS011;20233;50.804;7.126;2023-02-28T10:49:00;3.22;;;0.40;;
33954;SDS011;20233;50.804;7.126;2023-02-28T10:51:39;2.05;;;0.70;;
33954;SDS011;20233;50.804;7.126;2023-02-28T10:54:17;3.30;;;0.80;;
33954;SDS011;20233;50.804;7.126;2023-02-28T10:57:05;2.22;;;0.57;;
33954;SDS011;20233;50.804;7.126;2023-02-28T10:59:32;0.95;;;0.60;;
33954;SDS011;20233;50.804;7.126;2023-02-28T11:01:59;1.45;;;0.60;;
33954;SDS011;20233;50.804;7.126;2023-02-28T11:06:59;3.35;;;0.55;;
33954;SDS011;20233;50.804;7.126;2023-02-28T11:09:29;2.90;;;0.52;;
33954;SDS011;20233;50.804;7.126;2023-02-28T11:12:02;1.50;;;0.60;;
33954;SDS011;20233;50.804;7.126;2023-02-28T11:14:47;2.08;;;0.73;;
33954;SDS011;20233;50.804;7.126;2023-02-28T11:17:23;2.15;;;0.60;;
33954;SDS011;20233;50.804;7.126;2023-02-28T11:19:56;2.33;;;0.57;;
33954;SDS011;20233;50.804;7.126;2023-02-28T11:22:43;3.05;;;0.77;;
33954;SDS011;20233;50.804;7.126;2023-02-28T11:28:34;1.65;;;0.85;;
33954;SDS011;20233;50.804;7.126;2023-02-28T11:33:42;1.92;;;0.40;;
33954;SDS011;20233;50.804;7.126;2023-02-28T11:36:14;2.55;;;1.35;;
33954;SDS011;20233;50.804;7.126;2023-02-28T11:39:10;3.42;;;0.85;;
33954;SDS011;20233;50.804;7.126;2023-02-28T11:44:56;2.72;;;0.90;;
33954;SDS011;20233;50.804;7.126;2023-02-28T11:47:37;1.70;;;0.70;;
33954;SDS011;20233;50.804;7.126;2023-02-28T11:50:40;2.40;;;0.57;;
33954;SDS011;20233;50.804;7.126;2023-02-28T12:07:35;3.08;;;0.90;;
33954;SDS011;20233;50.804;7.126;2023-02-28T12:10:23;3.28;;;1.20;;
33954;SDS011;20233;50.804;7.126;2023-02-28T12:24:15;2.05;;;0.82;;
33954;SDS011;20233;50.804;7.126;2023-02-28T12:26:50;9.27;;;1.25;;
33954;SDS011;20233;50.804;7.126;2023-02-28T12:29:23;2.75;;;1.00;;
33954;SDS011;20233;50.804;7.126;2023-02-28T12:32:16;2.00;;;0.70;;
33954;SDS011;20233;50.804;7.126;2023-02-28T12:35:12;1.85;;;0.80;;
33954;SDS011;20233;50.804;7.126;2023-02-28T12:37:50;1.70;;;0.95;;
33954;SDS011;20233;50.804;7.126;2023-02-28T12:40:40;2.85;;;1.00;;
33954;SDS011;20233;50.804;7.126;2023-02-28T12:43:15;2.78;;;1.35;;
33954;SDS011;20233;50.804;7.126;2023-02-28T12:45:55;2.63;;;1.17;;
33954;SDS011;20233;50.804;7.126;2023-02-28T12:48:46;3.38;;;1.30;;
33954;SDS011;20233;50.804;7.126;2023-02-28T12:51:20;1.52;;;0.82;;
33954;SDS011;20233;50.804;7.126;2023-02-28T12:56:59;2.97;;;1.25;;
33954;SDS011;20233;50.804;7.126;2023-02-28T12:59:32;3.85;;;1.40;;
33954;SDS011;20233;50.804;7.126;2023-02-28T13:10:18;2.80;;;1.27;;
33954;SDS011;20233;50.804;7.126;2023-02-28T13:12:48;3.65;;;1.45;;
33954;SDS011;20233;50.804;7.126;2023-02-28T13:15:24;3.05;;;1.00;;
33954;SDS011;20233;50.804;7.126;2023-02-28T13:18:00;2.58;;;1.33;;
33954;SDS011;20233;50.804;7.126;2023-02-28T13:20:34;2.80;;;1.25;;
33954;SDS011;20233;50.804;7.126;2023-02-28T13:23:02;3.60;;;1.58;;
33954;SDS011;20233;50.804;7.126;2023-02-28T13:28:08;3.08;;;1.48;;
33954;SDS011;20233;50.804;7.126;2023-02-28T13:33:36;2.88;;;1.33;;
33954;SDS011;20233;50.804;7.126;2023-02-28T13:38:53;3.58;;;1.55;;
33954;SDS011;20233;50.804;7.126;2023-02-28T13:46:31;2.60;;;1.58;;
33954;SDS011;20233;50.804;7.126;2023-02-28T13:51:46;3.10;;;2.08;;
33954;SDS011;20233;50.804;7.126;2023-02-28T13:54:19;3.20;;;2.17;;
33954;SDS011;20233;50.804;7.126;2023-02-28T14:00:15;4.40;;;1.30;;
33954;SDS011;20233;50.804;7.126;2023-02-28T14:03:09;3.40;;;1.52;;
33954;SDS011;20233;50.804;7.126;2023-02-28T14:05:44;2.30;;;1.50;;
33954;SDS011;20233;50.804;7.126;2023-02-28T14:08:15;3.88;;;1.48;;
33954;SDS011;20233;50.804;7.126;2023-02-28T14:10:49;4.70;;;2.75;;
33954;SDS011;20233;50.804;7.126;2023-02-28T14:13:43;2.78;;;1.83;;
33954;SDS011;20233;50.804;7.126;2023-02-28T14:16:16;2.55;;;1.50;;
33954;SDS011;20233;50.804;7.126;2023-02-28T14:18:50;3.90;;;1.95;;
33954;SDS011;20233;50.804;7.126;2023-02-28T14:21:27;3.28;;;1.90;;
33954;SDS011;20233;50.804;7.126;2023-02-28T14:37:27;5.25;;;2.20;;
33954;SDS011;20233;50.804;7.126;2023-02-28T14:39:57;3.10;;;2.00;;
33954;SDS011;20233;50.804;7.126;2023-02-28T14:42:46;3.40;;;2.30;;
33954;SDS011;20233;50.804;7.126;2023-02-28T14:45:20;3.30;;;2.25;;
33954;SDS011;20233;50.804;7.126;2023-02-28T14:47:48;2.92;;;1.88;;
33954;SDS011;20233;50.804;7.126;2023-02-28T14:50:23;7.47;;;3.10;;
33954;SDS011;20233;50.804;7.126;2023-02-28T14:52:56;6.18;;;2.40;;
33954;SDS011;20233;50.804;7.126;2023-02-28T14:55:28;4.60;;;1.70;;
33954;SDS011;20233;50.804;7.126;2023-02-28T14:57:58;2.70;;;1.80;;
33954;SDS011;20233;50.804;7.126;2023-02-28T15:00:30;5.78;;;2.53;;
33954;SDS011;20233;50.804;7.126;2023-02-28T15:02:58;3.15;;;2.13;;
33954;SDS011;20233;50.804;7.126;2023-02-28T15:05:32;6.13;;;2.35;;
33954;SDS011;20233;50.804;7.126;2023-02-28T15:08:04;6.53;;;2.22;;
33954;SDS011;20233;50.804;7.126;2023-02-28T15:10:39;4.05;;;1.95;;
33954;SDS011;20233;50.804;7.126;2023-02-28T15:13:25;3.78;;;1.65;;
33954;SDS011;20233;50.804;7.126;2023-02-28T15:16:02;3.95;;;1.85;;
33954;SDS011;20233;50.804;7.126;2023-02-28T15:18:40;3.38;;;1.77;;
33954;SDS011;20233;50.804;7.126;2023-02-28T15:21:26;3.00;;;1.92;;
33954;SDS011;20233;50.804;7.126;2023-02-28T15:23:54;5.22;;;2.42;;
33954;SDS011;20233;50.804;7.126;2023-02-28T15:26:26;4.68;;;2.70;;
33954;SDS011;20233;50.804;7.126;2023-02-28T15:29:15;4.03;;;2.20;;
33954;SDS011;20233;50.804;7.126;2023-02-28T15:31:48;5.45;;;2.80;;
33954;SDS011;20233;50.804;7.126;2023-02-28T15:34:19;4.50;;;2.22;;
33954;SDS011;20233;50.804;7.126;2023-02-28T15:39:56;5.85;;;2.22;;
33954;SDS011;20233;50.804;7.126;2023-02-28T15:42:31;5.75;;;3.03;;
33954;SDS011;20233;50.804;7.126;2023-02-28T15:44:58;4.75;;;2.47;;
33954;SDS011;20233;50.804;7.126;2023-02-28T15:47:25;4.65;;;2.28;;
33954;SDS011;20233;50.804;7.126;2023-02-28T15:49:56;4.57;;;2.58;;
33954;SDS011;20233;50.804;7.126;2023-02-28T15:52:40;5.22;;;2.25;;
33954;SDS011;20233;50.804;7.126;2023-02-28T15:55:17;4.35;;;2.38;;
33954;SDS011;20233;50.804;7.126;2023-02-28T15:57:48;4.57;;;2.33;;
33954;SDS011;20233;50.804;7.126;2023-02-28T16:00:19;4.47;;;2.35;;
33954;SDS011;20233;50.804;7.126;2023-02-28T16:05:18;3.33;;;2.08;;
33954;SDS011;20233;50.804;7.126;2023-02-28T16:08:14;7.55;;;2.40;;
33954;SDS011;20233;50.804;7.126;2023-02-28T16:10:41;4.57;;;2.40;;
33954;SDS011;20233;50.804;7.126;2023-02-28T16:13:09;5.45;;;2.30;;
33954;SDS011;20233;50.804;7.126;2023-02-28T16:15:41;4.65;;;1.90;;
33954;SDS011;20233;50.804;7.126;2023-02-28T16:18:12;3.17;;;2.30;;
33954;SDS011;20233;50.804;7.126;2023-02-28T16:20:39;6.75;;;3.13;;
33954;SDS011;20233;50.804;7.126;2023-02-28T16:23:07;3.40;;;2.10;;
33954;SDS011;20233;50.804;7.126;2023-02-28T16:25:40;3.42;;;2.13;;
33954;SDS011;20233;50.804;7.126;2023-02-28T16:28:19;4.57;;;2.38;;
33954;SDS011;20233;50.804;7.126;2023-02-28T16:30:56;4.80;;;2.97;;
33954;SDS011;20233;50.804;7.126;2023-02-28T16:33:23;4.68;;;2.92;;
33954;SDS011;20233;50.804;7.126;2023-02-28T16:35:50;3.70;;;2.25;;
33954;SDS011;20233;50.804;7.126;2023-02-28T16:38:16;4.32;;;2.88;;
33954;SDS011;20233;50.804;7.126;2023-02-28T16:40:43;4.63;;;3.47;;
33954;SDS011;20233;50.804;7.126;2023-02-28T16:43:22;3.78;;;2.67;;
33954;SDS011;20233;50.804;7.126;2023-02-28T16:45:55;4.68;;;3.47;;
33954;SDS011;20233;50.804;7.126;2023-02-28T16:48:23;4.15;;;2.22;;
33954;SDS011;20233;50.804;7.126;2023-02-28T16:50:51;5.50;;;2.80;;
33954;SDS011;20233;50.804;7.126;2023-02-28T16:53:19;5.78;;;3.22;;
33954;SDS011;20233;50.804;7.126;2023-02-28T16:55:46;6.35;;;2.42;;
33954;SDS011;20233;50.804;7.126;2023-02-28T16:58:16;4.25;;;2.53;;
33954;SDS011;20233;50.804;7.126;2023-02-28T17:00:44;6.75;;;2.38;;
33954;SDS011;20233;50.804;7.126;2023-02-28T17:03:16;5.22;;;2.83;;
33954;SDS011;20233;50.804;7.126;2023-02-28T17:05:50;5.00;;;2.70;;
33954;SDS011;20233;50.804;7.126;2023-02-28T17:08:16;7.05;;;2.78;;
33954;SDS011;20233;50.804;7.126;2023-02-28T17:10:42;4.93;;;3.35;;
33954;SDS011;20233;50.804;7.126;2023-02-28T17:13:08;5.65;;;3.47;;
33954;SDS011;20233;50.804;7.126;2023-02-28T17:15:35;7.80;;;4.50;;
33954;SDS011;20233;50.804;7.126;2023-02-28T17:18:04;5.40;;;2.97;;
33954;SDS011;20233;50.804;7.126;2023-02-28T17:20:31;7.28;;;2.80;;
33954;SDS011;20233;50.804;7.126;2023-02-28T17:22:58;6.22;;;3.42;;
33954;SDS011;20233;50.804;7.126;2023-02-28T17:25:25;9.88;;;4.72;;